WALLWADD

Guest
Details From WALL - Balikpapan/Sepinggan
To WADD - Denpasar Ngurah Rai Intl
Flight Number -
Tags decoded
Created
Modified
Stats Distance 461 nm / 854 km
Max Altitude 0 ft / 0 m
Waypoints 5
Social Downloads 6
Likes 0
Share VATSIM

Download

Looking for another format? Having issues loading an existing format? Contact us
Advertisement - Login to hide

Notes

Requested: WALL OLDEN W46 HOSTY WADD

Route

WALL OLDEN W46 HOSTY WADD

ID Type Via Altitude Latitude Longitude Leg Dist Tot Dist Heading (true) Name
O WALL APT - 0 ft / 0 m -1.26827˚ 116.89448˚ - 0 nm - Balikpapan/Sepinggan
OLDEN FIX - 0 ft / 0 m -3.76568˚ 116.35069˚ 153 nm 153 nm 192° / 192° -
HULAT FIX W46 (AWY-LO) 0 ft / 0 m -4.93868˚ 116.07236˚ 72 nm 225 nm 193° / 193° -
HOSTY FIX W46 (AWY-LO) 0 ft / 0 m -6.71438˚ 115.64987˚ 109 nm 335 nm 193° / 193° -
O WADD APT - 0 ft / 0 m -8.74817˚ 115.16717˚ 125 nm 460 nm 193° / 193° Denpasar Ngurah Rai Intl

Altitude Profile

Advertisement - Login to hide

Weather


0- 5 10 15 20 25 30 35+ Temperature / ° C

Clouds and Precipitation
Forecast for 2017-12-13 06:00 UTC. Updated an hour ago

Ground ~20,000 ft ~40,000 ft Winds

WALL

Details ICAO WALL (BPN)
Name Balikpapan/Sepinggan
Region Indonesia
Timezone Asia/Makassar (UTC+8.0)
Stats Elevation 12 ft / 4 m (AMSL)
Location -1.268272° 116.894478°
Runways 1
Magnetic Variation 0.474° E

METAR

WALL 130130Z 23008KT 9999 FEW020 29/25 Q1011 NOSIG

Decode

TAF

Not found

Departure Runways

ID Width Length Bearing (true) Bearing (mag) Surface Threshold Offset Overrun Length
07 148 ft / 45 m 8,188 ft / 2,496 m 66.97° 66.50° Asphalt 0 ft / 0 m 197 ft / 60 m
25 148 ft / 45 m 8,188 ft / 2,496 m 246.97° 246.50° Asphalt 0 ft / 0 m 197 ft / 60 m

WADD

Details ICAO WADD (DPS)
Name Denpasar Ngurah Rai Intl
Region Indonesia
Timezone Asia/Makassar (UTC+8.0)
Stats Elevation 14 ft / 4 m (AMSL)
Location -8.748169° 115.167174°
Runways 1
Magnetic Variation 1.056° E

METAR

WADD 130130Z 29006KT 210V320 9999 SCT015 29/25 Q1011 NOSIG

Decode

TAF

TAF AMD TAF AMD WADD 121710Z 1218/1318 VRB05KT 9999 SCT016 TEMPO 1218/1222 5000 TSRA FEW013CB BKN013 BECMG 1223/1301 26010KT

Decode

Destination Runways

ID Width Length Bearing (true) Bearing (mag) Surface Threshold Offset Overrun Length
09 148 ft / 45 m 9,779 ft / 2,981 m 87.71° 86.65° Asphalt 121 ft / 37 m 75 ft / 23 m
27 148 ft / 45 m 9,779 ft / 2,981 m 267.70° 266.64° Asphalt 0 ft / 0 m 197 ft / 60 m

Approach Navaids

Runway Type Ident Frequency Range Bearing (true) Bearing (mag) Slope Elevation
27 Localiser IDPS 110.30 MHz 18 nm / 33 km 267.70° 266.65° - 10 ft / 3 m (AMSL)
27 Glidescope IDPS 110.30 MHz 10 nm / 19 km 267.70° 266.65° 3.00° 12 ft / 4 m (AMSL)
27 DME IDPS 110.30 MHz 18 nm / 33 km - - - 14 ft / 4 m (AMSL)

Popular Alternatives